sensor_id;sensor_type;location;lat;lon;timestamp;P1;durP1;ratioP1;P2;durP2;ratioP2
42246;SDS011;27913;42.722;23.268;2022-11-04T00:00:20;20.67;;;5.45;;
42246;SDS011;27913;42.722;23.268;2022-11-04T00:02:47;14.95;;;5.53;;
42246;SDS011;27913;42.722;23.268;2022-11-04T00:05:13;16.13;;;5.45;;
42246;SDS011;27913;42.722;23.268;2022-11-04T00:07:38;15.65;;;5.20;;
42246;SDS011;27913;42.722;23.268;2022-11-04T00:10:23;13.82;;;5.25;;
42246;SDS011;27913;42.722;23.268;2022-11-04T00:13:08;11.82;;;4.70;;
42246;SDS011;27913;42.722;23.268;2022-11-04T00:15:37;13.50;;;5.10;;
42246;SDS011;27913;42.722;23.268;2022-11-04T00:18:21;13.65;;;5.15;;
42246;SDS011;27913;42.722;23.268;2022-11-04T00:20:46;14.00;;;5.18;;
42246;SDS011;27913;42.722;23.268;2022-11-04T00:23:31;16.27;;;4.80;;
42246;SDS011;27913;42.722;23.268;2022-11-04T00:26:15;10.90;;;4.65;;
42246;SDS011;27913;42.722;23.268;2022-11-04T00:28:59;16.08;;;6.13;;
42246;SDS011;27913;42.722;23.268;2022-11-04T00:31:24;14.32;;;4.80;;
42246;SDS011;27913;42.722;23.268;2022-11-04T00:34:08;13.25;;;5.40;;
42246;SDS011;27913;42.722;23.268;2022-11-04T00:36:34;13.40;;;5.00;;
42246;SDS011;27913;42.722;23.268;2022-11-04T00:38:59;15.80;;;5.53;;
42246;SDS011;27913;42.722;23.268;2022-11-04T00:41:25;13.00;;;4.93;;
42246;SDS011;27913;42.722;23.268;2022-11-04T00:43:51;18.25;;;5.25;;
42246;SDS011;27913;42.722;23.268;2022-11-04T00:46:18;15.75;;;5.63;;
42246;SDS011;27913;42.722;23.268;2022-11-04T00:48:43;16.63;;;5.38;;
42246;SDS011;27913;42.722;23.268;2022-11-04T00:51:09;16.27;;;4.68;;
42246;SDS011;27913;42.722;23.268;2022-11-04T00:53:34;14.48;;;4.93;;
42246;SDS011;27913;42.722;23.268;2022-11-04T00:56:00;12.02;;;5.22;;
42246;SDS011;27913;42.722;23.268;2022-11-04T00:58:27;14.82;;;5.07;;
42246;SDS011;27913;42.722;23.268;2022-11-04T01:03:28;16.52;;;5.80;;
42246;SDS011;27913;42.722;23.268;2022-11-04T01:05:56;16.73;;;4.97;;
42246;SDS011;27913;42.722;23.268;2022-11-04T01:08:22;13.07;;;6.07;;
42246;SDS011;27913;42.722;23.268;2022-11-04T01:10:47;15.05;;;5.00;;
42246;SDS011;27913;42.722;23.268;2022-11-04T01:13:13;15.93;;;5.68;;
42246;SDS011;27913;42.722;23.268;2022-11-04T01:15:38;10.23;;;4.93;;
42246;SDS011;27913;42.722;23.268;2022-11-04T01:18:04;13.90;;;5.55;;
42246;SDS011;27913;42.722;23.268;2022-11-04T01:20:31;10.90;;;4.93;;
42246;SDS011;27913;42.722;23.268;2022-11-04T01:22:57;13.88;;;4.75;;
42246;SDS011;27913;42.722;23.268;2022-11-04T01:25:23;15.93;;;4.57;;
42246;SDS011;27913;42.722;23.268;2022-11-04T01:27:48;17.00;;;5.45;;
42246;SDS011;27913;42.722;23.268;2022-11-04T01:30:14;11.88;;;5.05;;
42246;SDS011;27913;42.722;23.268;2022-11-04T01:32:40;13.85;;;5.78;;
42246;SDS011;27913;42.722;23.268;2022-11-04T01:35:05;19.23;;;6.00;;
42246;SDS011;27913;42.722;23.268;2022-11-04T01:37:31;15.20;;;6.07;;
42246;SDS011;27913;42.722;23.268;2022-11-04T01:39:57;17.60;;;5.25;;
42246;SDS011;27913;42.722;23.268;2022-11-04T01:42:22;15.52;;;5.88;;
42246;SDS011;27913;42.722;23.268;2022-11-04T01:44:50;14.48;;;6.18;;
42246;SDS011;27913;42.722;23.268;2022-11-04T01:47:25;19.60;;;5.20;;
42246;SDS011;27913;42.722;23.268;2022-11-04T01:50:14;18.35;;;6.38;;
42246;SDS011;27913;42.722;23.268;2022-11-04T01:57:43;12.60;;;5.47;;
42246;SDS011;27913;42.722;23.268;2022-11-04T02:00:12;18.90;;;6.35;;
42246;SDS011;27913;42.722;23.268;2022-11-04T02:02:53;12.60;;;5.22;;
42246;SDS011;27913;42.722;23.268;2022-11-04T02:05:21;17.85;;;5.65;;
42246;SDS011;27913;42.722;23.268;2022-11-04T02:07:49;13.32;;;5.93;;
42246;SDS011;27913;42.722;23.268;2022-11-04T02:10:18;12.15;;;5.47;;
42246;SDS011;27913;42.722;23.268;2022-11-04T02:12:45;13.80;;;5.53;;
42246;SDS011;27913;42.722;23.268;2022-11-04T02:15:13;25.27;;;6.25;;
42246;SDS011;27913;42.722;23.268;2022-11-04T02:29:10;14.45;;;5.40;;
42246;SDS011;27913;42.722;23.268;2022-11-04T02:31:40;11.85;;;5.65;;
42246;SDS011;27913;42.722;23.268;2022-11-04T02:37:14;15.73;;;6.80;;
42246;SDS011;27913;42.722;23.268;2022-11-04T02:45:25;13.25;;;5.20;;
42246;SDS011;27913;42.722;23.268;2022-11-04T02:48:00;14.57;;;5.95;;
42246;SDS011;27913;42.722;23.268;2022-11-04T02:50:33;14.98;;;5.85;;
42246;SDS011;27913;42.722;23.268;2022-11-04T02:53:06;11.40;;;5.18;;
42246;SDS011;27913;42.722;23.268;2022-11-04T02:55:39;15.73;;;6.85;;
42246;SDS011;27913;42.722;23.268;2022-11-04T02:58:53;10.30;;;5.38;;
42246;SDS011;27913;42.722;23.268;2022-11-04T03:01:02;18.55;;;6.05;;
42246;SDS011;27913;42.722;23.268;2022-11-04T03:03:33;18.45;;;5.60;;
42246;SDS011;27913;42.722;23.268;2022-11-04T03:06:04;16.83;;;5.80;;
42246;SDS011;27913;42.722;23.268;2022-11-04T03:08:33;13.13;;;5.60;;
42246;SDS011;27913;42.722;23.268;2022-11-04T03:11:16;16.02;;;5.78;;
42246;SDS011;27913;42.722;23.268;2022-11-04T03:17:05;13.43;;;6.38;;
42246;SDS011;27913;42.722;23.268;2022-11-04T03:19:29;16.95;;;5.85;;
42246;SDS011;27913;42.722;23.268;2022-11-04T03:22:14;16.30;;;6.60;;
42246;SDS011;27913;42.722;23.268;2022-11-04T03:24:43;15.30;;;5.18;;
42246;SDS011;27913;42.722;23.268;2022-11-04T03:32:36;14.15;;;6.22;;
42246;SDS011;27913;42.722;23.268;2022-11-04T03:35:21;13.82;;;5.95;;
42246;SDS011;27913;42.722;23.268;2022-11-04T03:37:48;12.68;;;5.95;;
42246;SDS011;27913;42.722;23.268;2022-11-04T03:40:15;16.27;;;6.97;;
42246;SDS011;27913;42.722;23.268;2022-11-04T03:42:43;14.20;;;6.32;;
42246;SDS011;27913;42.722;23.268;2022-11-04T03:45:13;14.80;;;6.43;;
42246;SDS011;27913;42.722;23.268;2022-11-04T03:47:39;13.55;;;5.80;;
42246;SDS011;27913;42.722;23.268;2022-11-04T03:50:39;13.63;;;6.68;;
42246;SDS011;27913;42.722;23.268;2022-11-04T03:53:03;13.82;;;6.32;;
42246;SDS011;27913;42.722;23.268;2022-11-04T03:56:13;16.33;;;6.70;;
42246;SDS011;27913;42.722;23.268;2022-11-04T04:03:41;18.02;;;7.03;;
42246;SDS011;27913;42.722;23.268;2022-11-04T04:06:15;15.98;;;6.47;;
42246;SDS011;27913;42.722;23.268;2022-11-04T04:08:50;14.90;;;6.32;;
42246;SDS011;27913;42.722;23.268;2022-11-04T04:14:30;14.55;;;6.43;;
42246;SDS011;27913;42.722;23.268;2022-11-04T04:17:23;19.98;;;7.20;;
42246;SDS011;27913;42.722;23.268;2022-11-04T04:20:00;15.07;;;7.18;;
42246;SDS011;27913;42.722;23.268;2022-11-04T04:22:34;19.08;;;6.68;;
42246;SDS011;27913;42.722;23.268;2022-11-04T04:25:06;12.80;;;6.50;;
42246;SDS011;27913;42.722;23.268;2022-11-04T04:27:54;12.38;;;6.32;;
42246;SDS011;27913;42.722;23.268;2022-11-04T04:30:22;14.95;;;6.70;;
42246;SDS011;27913;42.722;23.268;2022-11-04T04:32:52;20.20;;;6.55;;
42246;SDS011;27913;42.722;23.268;2022-11-04T04:35:32;17.85;;;6.65;;
42246;SDS011;27913;42.722;23.268;2022-11-04T04:38:08;29.48;;;6.72;;
42246;SDS011;27913;42.722;23.268;2022-11-04T04:41:03;16.50;;;6.43;;
42246;SDS011;27913;42.722;23.268;2022-11-04T04:43:56;18.83;;;7.88;;
42246;SDS011;27913;42.722;23.268;2022-11-04T04:46:41;16.00;;;6.65;;
42246;SDS011;27913;42.722;23.268;2022-11-04T04:49:08;23.38;;;7.57;;
42246;SDS011;27913;42.722;23.268;2022-11-04T04:51:35;16.35;;;7.70;;
42246;SDS011;27913;42.722;23.268;2022-11-04T04:54:05;19.40;;;7.38;;
42246;SDS011;27913;42.722;23.268;2022-11-04T04:56:31;22.90;;;7.05;;
42246;SDS011;27913;42.722;23.268;2022-11-04T04:58:56;17.88;;;7.03;;
42246;SDS011;27913;42.722;23.268;2022-11-04T05:01:22;21.38;;;7.38;;
42246;SDS011;27913;42.722;23.268;2022-11-04T05:03:48;17.08;;;7.03;;
42246;SDS011;27913;42.722;23.268;2022-11-04T05:06:13;25.77;;;8.18;;
42246;SDS011;27913;42.722;23.268;2022-11-04T05:08:38;20.95;;;7.78;;
42246;SDS011;27913;42.722;23.268;2022-11-04T05:11:04;20.25;;;7.78;;
42246;SDS011;27913;42.722;23.268;2022-11-04T05:13:30;18.25;;;7.15;;
42246;SDS011;27913;42.722;23.268;2022-11-04T05:16:05;16.25;;;7.45;;
42246;SDS011;27913;42.722;23.268;2022-11-04T05:18:33;19.27;;;7.68;;
42246;SDS011;27913;42.722;23.268;2022-11-04T05:21:06;16.88;;;7.60;;
42246;SDS011;27913;42.722;23.268;2022-11-04T05:23:33;17.88;;;7.03;;
42246;SDS011;27913;42.722;23.268;2022-11-04T05:25:59;26.67;;;7.85;;
42246;SDS011;27913;42.722;23.268;2022-11-04T05:28:25;22.85;;;8.65;;
42246;SDS011;27913;42.722;23.268;2022-11-04T05:30:50;22.60;;;9.40;;
42246;SDS011;27913;42.722;23.268;2022-11-04T05:33:16;20.20;;;8.32;;
42246;SDS011;27913;42.722;23.268;2022-11-04T05:35:41;24.02;;;7.40;;
42246;SDS011;27913;42.722;23.268;2022-11-04T05:38:07;19.05;;;8.60;;
42246;SDS011;27913;42.722;23.268;2022-11-04T05:40:32;22.15;;;8.35;;
42246;SDS011;27913;42.722;23.268;2022-11-04T05:42:58;19.58;;;8.38;;
42246;SDS011;27913;42.722;23.268;2022-11-04T05:45:24;17.30;;;7.93;;
42246;SDS011;27913;42.722;23.268;2022-11-04T05:47:58;24.65;;;8.27;;
42246;SDS011;27913;42.722;23.268;2022-11-04T05:50:28;22.23;;;8.50;;
42246;SDS011;27913;42.722;23.268;2022-11-04T05:52:55;25.30;;;9.30;;
42246;SDS011;27913;42.722;23.268;2022-11-04T05:55:25;23.67;;;8.93;;
42246;SDS011;27913;42.722;23.268;2022-11-04T05:57:52;27.52;;;11.38;;
42246;SDS011;27913;42.722;23.268;2022-11-04T06:02:47;28.17;;;10.52;;
42246;SDS011;27913;42.722;23.268;2022-11-04T06:05:12;28.73;;;11.20;;
42246;SDS011;27913;42.722;23.268;2022-11-04T06:07:38;20.63;;;9.02;;
42246;SDS011;27913;42.722;23.268;2022-11-04T06:10:03;27.98;;;9.60;;
42246;SDS011;27913;42.722;23.268;2022-11-04T06:12:29;24.60;;;10.15;;
42246;SDS011;27913;42.722;23.268;2022-11-04T06:14:55;22.30;;;9.45;;
42246;SDS011;27913;42.722;23.268;2022-11-04T06:17:21;24.65;;;9.75;;
42246;SDS011;27913;42.722;23.268;2022-11-04T06:19:47;19.63;;;9.63;;
42246;SDS011;27913;42.722;23.268;2022-11-04T06:22:14;27.05;;;9.73;;
42246;SDS011;27913;42.722;23.268;2022-11-04T06:24:41;25.55;;;10.80;;
42246;SDS011;27913;42.722;23.268;2022-11-04T06:27:07;26.40;;;11.23;;
42246;SDS011;27913;42.722;23.268;2022-11-04T06:29:34;27.40;;;10.93;;
42246;SDS011;27913;42.722;23.268;2022-11-04T06:32:10;26.40;;;11.77;;
42246;SDS011;27913;42.722;23.268;2022-11-04T06:34:38;26.85;;;11.73;;
42246;SDS011;27913;42.722;23.268;2022-11-04T06:37:03;29.20;;;11.60;;
42246;SDS011;27913;42.722;23.268;2022-11-04T06:39:29;29.50;;;11.73;;
42246;SDS011;27913;42.722;23.268;2022-11-04T06:41:54;30.90;;;13.32;;
42246;SDS011;27913;42.722;23.268;2022-11-04T06:44:20;38.42;;;11.63;;
42246;SDS011;27913;42.722;23.268;2022-11-04T06:46:46;28.13;;;12.13;;
42246;SDS011;27913;42.722;23.268;2022-11-04T06:49:13;31.77;;;11.82;;
42246;SDS011;27913;42.722;23.268;2022-11-04T06:51:43;23.30;;;10.48;;
42246;SDS011;27913;42.722;23.268;2022-11-04T06:54:09;30.33;;;10.90;;
42246;SDS011;27913;42.722;23.268;2022-11-04T06:56:35;27.95;;;10.30;;
42246;SDS011;27913;42.722;23.268;2022-11-04T06:59:00;22.58;;;11.00;;
42246;SDS011;27913;42.722;23.268;2022-11-04T07:01:27;20.35;;;10.05;;
42246;SDS011;27913;42.722;23.268;2022-11-04T07:03:54;25.98;;;11.48;;
42246;SDS011;27913;42.722;23.268;2022-11-04T07:06:21;30.15;;;12.48;;
42246;SDS011;27913;42.722;23.268;2022-11-04T07:08:47;24.98;;;11.05;;
42246;SDS011;27913;42.722;23.268;2022-11-04T07:11:14;27.52;;;10.93;;
42246;SDS011;27913;42.722;23.268;2022-11-04T07:13:41;29.58;;;11.32;;
42246;SDS011;27913;42.722;23.268;2022-11-04T07:16:07;24.55;;;11.05;;
42246;SDS011;27913;42.722;23.268;2022-11-04T07:18:33;22.90;;;10.32;;
42246;SDS011;27913;42.722;23.268;2022-11-04T07:20:59;28.45;;;11.43;;
42246;SDS011;27913;42.722;23.268;2022-11-04T07:23:25;28.40;;;11.35;;
42246;SDS011;27913;42.722;23.268;2022-11-04T07:25:50;31.05;;;11.38;;
42246;SDS011;27913;42.722;23.268;2022-11-04T07:28:18;32.03;;;11.90;;
42246;SDS011;27913;42.722;23.268;2022-11-04T07:30:44;24.10;;;10.82;;
42246;SDS011;27913;42.722;23.268;2022-11-04T07:33:10;26.50;;;10.18;;
42246;SDS011;27913;42.722;23.268;2022-11-04T07:35:35;28.17;;;11.50;;
42246;SDS011;27913;42.722;23.268;2022-11-04T07:38:01;29.27;;;12.05;;
42246;SDS011;27913;42.722;23.268;2022-11-04T07:40:28;31.23;;;13.80;;
42246;SDS011;27913;42.722;23.268;2022-11-04T07:42:54;31.65;;;13.35;;
42246;SDS011;27913;42.722;23.268;2022-11-04T07:45:19;26.02;;;10.77;;
42246;SDS011;27913;42.722;23.268;2022-11-04T07:47:45;25.95;;;11.35;;
42246;SDS011;27913;42.722;23.268;2022-11-04T07:50:10;24.17;;;11.48;;
42246;SDS011;27913;42.722;23.268;2022-11-04T07:52:36;25.73;;;11.90;;
42246;SDS011;27913;42.722;23.268;2022-11-04T07:55:02;28.02;;;11.93;;
42246;SDS011;27913;42.722;23.268;2022-11-04T07:57:29;22.92;;;10.68;;
42246;SDS011;27913;42.722;23.268;2022-11-04T07:59:54;29.15;;;11.40;;
42246;SDS011;27913;42.722;23.268;2022-11-04T08:02:20;22.30;;;10.40;;
42246;SDS011;27913;42.722;23.268;2022-11-04T08:04:46;26.38;;;11.05;;
42246;SDS011;27913;42.722;23.268;2022-11-04T08:07:11;23.30;;;11.43;;
42246;SDS011;27913;42.722;23.268;2022-11-04T08:09:37;25.35;;;11.32;;
42246;SDS011;27913;42.722;23.268;2022-11-04T08:12:03;24.45;;;11.10;;
42246;SDS011;27913;42.722;23.268;2022-11-04T08:14:29;26.98;;;12.02;;
42246;SDS011;27913;42.722;23.268;2022-11-04T08:16:55;23.42;;;11.38;;
42246;SDS011;27913;42.722;23.268;2022-11-04T08:19:20;26.95;;;11.45;;
42246;SDS011;27913;42.722;23.268;2022-11-04T08:21:45;30.83;;;12.00;;
42246;SDS011;27913;42.722;23.268;2022-11-04T08:24:11;25.90;;;11.35;;
42246;SDS011;27913;42.722;23.268;2022-11-04T08:26:36;28.90;;;11.65;;
42246;SDS011;27913;42.722;23.268;2022-11-04T08:29:07;23.70;;;11.90;;
42246;SDS011;27913;42.722;23.268;2022-11-04T08:31:33;29.42;;;11.18;;
42246;SDS011;27913;42.722;23.268;2022-11-04T08:33:59;33.88;;;11.40;;
42246;SDS011;27913;42.722;23.268;2022-11-04T08:36:29;27.20;;;10.90;;
42246;SDS011;27913;42.722;23.268;2022-11-04T08:39:00;27.35;;;10.85;;
42246;SDS011;27913;42.722;23.268;2022-11-04T08:41:28;24.30;;;10.55;;
42246;SDS011;27913;42.722;23.268;2022-11-04T08:43:56;29.13;;;10.45;;
42246;SDS011;27913;42.722;23.268;2022-11-04T08:46:25;26.40;;;11.35;;
42246;SDS011;27913;42.722;23.268;2022-11-04T08:48:51;27.60;;;11.32;;
42246;SDS011;27913;42.722;23.268;2022-11-04T08:51:18;25.85;;;11.15;;
42246;SDS011;27913;42.722;23.268;2022-11-04T08:53:46;25.52;;;10.95;;
42246;SDS011;27913;42.722;23.268;2022-11-04T08:56:19;24.40;;;10.73;;
42246;SDS011;27913;42.722;23.268;2022-11-04T08:58:50;23.67;;;10.57;;
42246;SDS011;27913;42.722;23.268;2022-11-04T09:01:17;28.58;;;11.15;;
42246;SDS011;27913;42.722;23.268;2022-11-04T09:03:43;23.17;;;11.27;;
42246;SDS011;27913;42.722;23.268;2022-11-04T09:06:10;22.48;;;10.55;;
42246;SDS011;27913;42.722;23.268;2022-11-04T09:08:39;25.20;;;11.52;;
42246;SDS011;27913;42.722;23.268;2022-11-04T09:11:08;23.70;;;11.10;;
42246;SDS011;27913;42.722;23.268;2022-11-04T09:13:36;26.35;;;10.95;;
42246;SDS011;27913;42.722;23.268;2022-11-04T09:16:02;33.28;;;10.95;;
42246;SDS011;27913;42.722;23.268;2022-11-04T09:18:29;23.45;;;10.93;;
42246;SDS011;27913;42.722;23.268;2022-11-04T09:20:57;27.10;;;10.95;;
42246;SDS011;27913;42.722;23.268;2022-11-04T09:23:24;24.38;;;10.98;;
42246;SDS011;27913;42.722;23.268;2022-11-04T09:25:50;27.23;;;11.15;;
42246;SDS011;27913;42.722;23.268;2022-11-04T09:28:15;26.33;;;10.55;;
42246;SDS011;27913;42.722;23.268;2022-11-04T09:30:41;26.45;;;10.30;;
42246;SDS011;27913;42.722;23.268;2022-11-04T09:33:06;31.52;;;11.25;;
42246;SDS011;27913;42.722;23.268;2022-11-04T09:35:32;23.15;;;10.43;;
42246;SDS011;27913;42.722;23.268;2022-11-04T09:37:58;26.65;;;14.50;;
42246;SDS011;27913;42.722;23.268;2022-11-04T09:40:25;31.20;;;14.02;;
42246;SDS011;27913;42.722;23.268;2022-11-04T09:45:59;22.77;;;10.80;;
42246;SDS011;27913;42.722;23.268;2022-11-04T09:51:12;25.27;;;11.20;;
42246;SDS011;27913;42.722;23.268;2022-11-04T09:53:44;19.73;;;10.23;;
42246;SDS011;27913;42.722;23.268;2022-11-04T09:56:21;26.00;;;10.45;;
42246;SDS011;27913;42.722;23.268;2022-11-04T09:58:49;27.23;;;10.35;;
42246;SDS011;27913;42.722;23.268;2022-11-04T10:01:27;23.83;;;10.40;;
42246;SDS011;27913;42.722;23.268;2022-11-04T10:09:47;18.17;;;8.55;;
42246;SDS011;27913;42.722;23.268;2022-11-04T10:15:36;20.67;;;9.13;;
42246;SDS011;27913;42.722;23.268;2022-11-04T10:29:02;25.13;;;9.27;;
42246;SDS011;27913;42.722;23.268;2022-11-04T10:31:30;25.58;;;9.50;;
42246;SDS011;27913;42.722;23.268;2022-11-04T10:34:02;18.95;;;8.05;;
42246;SDS011;27913;42.722;23.268;2022-11-04T10:36:32;26.63;;;9.45;;
42246;SDS011;27913;42.722;23.268;2022-11-04T10:39:00;19.08;;;8.38;;
42246;SDS011;27913;42.722;23.268;2022-11-04T10:41:30;17.45;;;7.72;;
42246;SDS011;27913;42.722;23.268;2022-11-04T10:44:03;15.95;;;7.75;;
42246;SDS011;27913;42.722;23.268;2022-11-04T10:51:51;17.50;;;6.93;;
42246;SDS011;27913;42.722;23.268;2022-11-04T10:54:18;24.67;;;7.40;;
42246;SDS011;27913;42.722;23.268;2022-11-04T10:56:46;17.15;;;6.88;;
42246;SDS011;27913;42.722;23.268;2022-11-04T11:01:53;19.25;;;7.03;;
42246;SDS011;27913;42.722;23.268;2022-11-04T11:04:25;14.13;;;6.30;;
42246;SDS011;27913;42.722;23.268;2022-11-04T11:06:53;15.52;;;6.30;;
42246;SDS011;27913;42.722;23.268;2022-11-04T11:09:21;16.63;;;6.70;;
42246;SDS011;27913;42.722;23.268;2022-11-04T11:11:54;19.05;;;6.38;;
42246;SDS011;27913;42.722;23.268;2022-11-04T11:16:52;16.23;;;6.10;;
42246;SDS011;27913;42.722;23.268;2022-11-04T11:19:24;19.08;;;6.53;;
42246;SDS011;27913;42.722;23.268;2022-11-04T11:21:51;12.35;;;6.03;;
42246;SDS011;27913;42.722;23.268;2022-11-04T11:26:48;15.38;;;5.80;;
42246;SDS011;27913;42.722;23.268;2022-11-04T11:29:34;14.45;;;7.00;;
42246;SDS011;27913;42.722;23.268;2022-11-04T11:32:04;12.55;;;5.85;;
42246;SDS011;27913;42.722;23.268;2022-11-04T11:34:43;23.08;;;6.40;;
42246;SDS011;27913;42.722;23.268;2022-11-04T11:37:18;19.98;;;6.47;;
42246;SDS011;27913;42.722;23.268;2022-11-04T11:39:47;19.17;;;6.70;;
42246;SDS011;27913;42.722;23.268;2022-11-04T11:42:13;18.23;;;6.68;;
42246;SDS011;27913;42.722;23.268;2022-11-04T11:44:48;17.73;;;6.32;;
42246;SDS011;27913;42.722;23.268;2022-11-04T11:47:21;16.23;;;5.75;;
42246;SDS011;27913;42.722;23.268;2022-11-04T11:50:17;15.75;;;6.45;;
42246;SDS011;27913;42.722;23.268;2022-11-04T11:52:45;22.52;;;6.90;;
42246;SDS011;27913;42.722;23.268;2022-11-04T11:55:18;14.02;;;6.05;;
42246;SDS011;27913;42.722;23.268;2022-11-04T12:00:41;15.15;;;5.40;;
42246;SDS011;27913;42.722;23.268;2022-11-04T12:05:59;17.80;;;6.30;;
42246;SDS011;27913;42.722;23.268;2022-11-04T12:28:47;16.73;;;5.38;;
42246;SDS011;27913;42.722;23.268;2022-11-04T12:37:28;14.05;;;5.25;;
42246;SDS011;27913;42.722;23.268;2022-11-04T12:45:33;14.98;;;5.53;;
42246;SDS011;27913;42.722;23.268;2022-11-04T12:53:42;12.20;;;5.15;;
42246;SDS011;27913;42.722;23.268;2022-11-04T12:56:21;19.02;;;5.68;;
42246;SDS011;27913;42.722;23.268;2022-11-04T12:59:24;12.30;;;5.20;;
42246;SDS011;27913;42.722;23.268;2022-11-04T13:02:15;14.18;;;5.15;;
42246;SDS011;27913;42.722;23.268;2022-11-04T13:04:47;11.57;;;5.15;;
42246;SDS011;27913;42.722;23.268;2022-11-04T13:07:26;16.02;;;5.70;;
42246;SDS011;27913;42.722;23.268;2022-11-04T13:10:03;13.77;;;5.53;;
42246;SDS011;27913;42.722;23.268;2022-11-04T13:12:35;18.10;;;5.75;;
42246;SDS011;27913;42.722;23.268;2022-11-04T13:15:06;12.50;;;5.00;;
42246;SDS011;27913;42.722;23.268;2022-11-04T13:17:49;14.30;;;5.15;;
42246;SDS011;27913;42.722;23.268;2022-11-04T13:22:50;10.88;;;4.75;;
42246;SDS011;27913;42.722;23.268;2022-11-04T13:25:28;20.00;;;5.60;;
42246;SDS011;27913;42.722;23.268;2022-11-04T13:27:57;14.60;;;5.00;;
42246;SDS011;27913;42.722;23.268;2022-11-04T13:36:14;11.65;;;5.22;;
42246;SDS011;27913;42.722;23.268;2022-11-04T13:44:23;18.75;;;5.70;;
42246;SDS011;27913;42.722;23.268;2022-11-04T13:46:50;16.60;;;5.22;;
42246;SDS011;27913;42.722;23.268;2022-11-04T13:49:25;23.75;;;7.20;;
42246;SDS011;27913;42.722;23.268;2022-11-04T13:52:02;14.95;;;6.18;;
42246;SDS011;27913;42.722;23.268;2022-11-04T13:54:40;21.65;;;5.43;;
42246;SDS011;27913;42.722;23.268;2022-11-04T13:57:15;15.45;;;5.68;;
42246;SDS011;27913;42.722;23.268;2022-11-04T14:18:34;19.38;;;6.82;;
42246;SDS011;27913;42.722;23.268;2022-11-04T14:23:37;17.73;;;6.43;;
42246;SDS011;27913;42.722;23.268;2022-11-04T14:26:05;15.93;;;6.10;;
42246;SDS011;27913;42.722;23.268;2022-11-04T14:28:34;13.18;;;5.75;;
42246;SDS011;27913;42.722;23.268;2022-11-04T14:31:01;22.98;;;7.00;;
42246;SDS011;27913;42.722;23.268;2022-11-04T14:33:51;16.05;;;6.55;;
42246;SDS011;27913;42.722;23.268;2022-11-04T14:38:50;12.77;;;5.68;;
42246;SDS011;27913;42.722;23.268;2022-11-04T14:44:19;17.83;;;6.35;;
42246;SDS011;27913;42.722;23.268;2022-11-04T14:49:59;20.75;;;6.70;;
42246;SDS011;27913;42.722;23.268;2022-11-04T14:52:28;24.30;;;5.97;;
42246;SDS011;27913;42.722;23.268;2022-11-04T14:55:02;18.20;;;7.35;;
42246;SDS011;27913;42.722;23.268;2022-11-04T14:57:37;18.67;;;6.88;;
42246;SDS011;27913;42.722;23.268;2022-11-04T15:00:28;15.27;;;6.60;;
42246;SDS011;27913;42.722;23.268;2022-11-04T15:05:34;16.15;;;7.30;;
42246;SDS011;27913;42.722;23.268;2022-11-04T15:11:11;19.77;;;6.97;;
42246;SDS011;27913;42.722;23.268;2022-11-04T15:13:44;15.40;;;7.10;;
42246;SDS011;27913;42.722;23.268;2022-11-04T15:16:18;17.95;;;6.88;;
42246;SDS011;27913;42.722;23.268;2022-11-04T15:18:46;20.27;;;7.05;;
42246;SDS011;27913;42.722;23.268;2022-11-04T15:21:12;17.52;;;8.02;;
42246;SDS011;27913;42.722;23.268;2022-11-04T15:23:39;27.75;;;11.30;;
42246;SDS011;27913;42.722;23.268;2022-11-04T15:26:24;25.38;;;10.93;;
42246;SDS011;27913;42.722;23.268;2022-11-04T15:28:51;18.48;;;7.30;;
42246;SDS011;27913;42.722;23.268;2022-11-04T15:31:19;20.67;;;7.28;;
42246;SDS011;27913;42.722;23.268;2022-11-04T15:33:48;22.30;;;8.27;;
42246;SDS011;27913;42.722;23.268;2022-11-04T15:36:17;20.73;;;8.52;;
42246;SDS011;27913;42.722;23.268;2022-11-04T15:38:48;26.50;;;7.88;;
42246;SDS011;27913;42.722;23.268;2022-11-04T15:41:21;20.52;;;7.07;;
42246;SDS011;27913;42.722;23.268;2022-11-04T15:44:11;23.50;;;8.85;;
42246;SDS011;27913;42.722;23.268;2022-11-04T15:46:40;22.35;;;6.85;;
42246;SDS011;27913;42.722;23.268;2022-11-04T15:49:36;21.67;;;7.38;;
42246;SDS011;27913;42.722;23.268;2022-11-04T15:52:05;21.73;;;7.43;;
42246;SDS011;27913;42.722;23.268;2022-11-04T15:54:39;16.65;;;6.93;;
42246;SDS011;27913;42.722;23.268;2022-11-04T15:57:14;23.30;;;8.90;;
42246;SDS011;27913;42.722;23.268;2022-11-04T15:59:48;17.60;;;7.63;;
42246;SDS011;27913;42.722;23.268;2022-11-04T16:02:32;20.00;;;7.50;;
42246;SDS011;27913;42.722;23.268;2022-11-04T16:07:40;20.90;;;7.55;;
42246;SDS011;27913;42.722;23.268;2022-11-04T16:10:23;22.13;;;8.05;;
42246;SDS011;27913;42.722;23.268;2022-11-04T16:13:19;20.15;;;7.80;;
42246;SDS011;27913;42.722;23.268;2022-11-04T16:18:19;21.17;;;7.82;;
42246;SDS011;27913;42.722;23.268;2022-11-04T16:20:48;16.42;;;8.05;;
42246;SDS011;27913;42.722;23.268;2022-11-04T16:23:18;19.58;;;7.90;;
42246;SDS011;27913;42.722;23.268;2022-11-04T16:25:46;16.90;;;7.60;;
42246;SDS011;27913;42.722;23.268;2022-11-04T16:28:39;17.25;;;7.13;;
42246;SDS011;27913;42.722;23.268;2022-11-04T16:31:07;17.00;;;7.53;;
42246;SDS011;27913;42.722;23.268;2022-11-04T16:33:45;26.60;;;8.77;;
42246;SDS011;27913;42.722;23.268;2022-11-04T16:36:13;16.80;;;8.25;;
42246;SDS011;27913;42.722;23.268;2022-11-04T16:38:52;18.70;;;7.30;;
42246;SDS011;27913;42.722;23.268;2022-11-04T16:41:19;18.02;;;8.68;;
42246;SDS011;27913;42.722;23.268;2022-11-04T16:43:46;21.88;;;8.02;;
42246;SDS011;27913;42.722;23.268;2022-11-04T16:46:15;22.27;;;7.78;;
42246;SDS011;27913;42.722;23.268;2022-11-04T16:48:41;23.13;;;8.98;;
42246;SDS011;27913;42.722;23.268;2022-11-04T16:51:14;18.35;;;8.13;;
42246;SDS011;27913;42.722;23.268;2022-11-04T16:53:48;23.27;;;7.60;;
42246;SDS011;27913;42.722;23.268;2022-11-04T16:56:15;25.08;;;8.90;;
42246;SDS011;27913;42.722;23.268;2022-11-04T16:58:43;19.55;;;8.45;;
42246;SDS011;27913;42.722;23.268;2022-11-04T17:01:12;22.20;;;9.18;;
42246;SDS011;27913;42.722;23.268;2022-11-04T17:03:39;20.17;;;8.00;;
42246;SDS011;27913;42.722;23.268;2022-11-04T17:06:05;18.38;;;7.72;;
42246;SDS011;27913;42.722;23.268;2022-11-04T17:08:31;18.60;;;8.20;;
42246;SDS011;27913;42.722;23.268;2022-11-04T17:10:57;19.42;;;7.50;;
42246;SDS011;27913;42.722;23.268;2022-11-04T17:13:23;18.92;;;8.10;;
42246;SDS011;27913;42.722;23.268;2022-11-04T17:15:48;17.95;;;8.10;;
42246;SDS011;27913;42.722;23.268;2022-11-04T17:18:14;16.05;;;7.95;;
42246;SDS011;27913;42.722;23.268;2022-11-04T17:20:42;20.05;;;7.43;;
42246;SDS011;27913;42.722;23.268;2022-11-04T17:23:12;27.83;;;8.32;;
42246;SDS011;27913;42.722;23.268;2022-11-04T17:25:39;23.17;;;8.52;;
42246;SDS011;27913;42.722;23.268;2022-11-04T17:28:04;18.33;;;8.82;;
42246;SDS011;27913;42.722;23.268;2022-11-04T17:30:30;25.17;;;10.00;;
42246;SDS011;27913;42.722;23.268;2022-11-04T17:32:56;19.48;;;8.57;;
42246;SDS011;27913;42.722;23.268;2022-11-04T17:35:22;22.23;;;8.70;;
42246;SDS011;27913;42.722;23.268;2022-11-04T17:37:51;19.85;;;9.13;;
42246;SDS011;27913;42.722;23.268;2022-11-04T17:40:21;24.75;;;10.15;;